Time;durP1;ratioP1;P1;durP2;ratioP2;P2;SDS_P1;SDS_P2;PMS_P1;PMS_P2;Temp;Humidity;BMP_temperature;BMP_pressure;BME280_temperature;BME280_humidity;BME280_pressure;Samples;Min_cycle;Max_cycle;Signal;HPM_P1;HPM_P2
2022/03/26 00:01:30;;;;;;;91.38;48.38;;;;;;;;;;5055281;28;20072;-76
2022/03/26 00:03:56;;;;;;;91.28;48.10;;;;;;;;;;5056202;28;20256;-77
2022/03/26 00:06:22;;;;;;;90.25;47.90;;;;;;;;;;5055612;28;20115;-79
2022/03/26 00:08:49;;;;;;;87.30;46.08;;;;;;;;;;5055143;28;20041;-77
2022/03/26 00:11:15;;;;;;;89.07;47.88;;;;;;;;;;5055407;28;20170;-77
2022/03/26 00:13:41;;;;;;;98.85;50.63;;;;;;;;;;5055577;28;20062;-77
2022/03/26 00:16:07;;;;;;;91.07;49.78;;;;;;;;;;5055783;28;20508;-77
2022/03/26 00:18:33;;;;;;;98.30;49.75;;;;;;;;;;5055005;28;20043;-77
2022/03/26 00:20:59;;;;;;;94.15;49.88;;;;;;;;;;5055410;28;20140;-76
2022/03/26 00:23:25;;;;;;;94.68;47.78;;;;;;;;;;5055221;28;20060;-77
2022/03/26 00:25:51;;;;;;;90.10;48.33;;;;;;;;;;5056738;28;20041;-78
2022/03/26 00:28:17;;;;;;;95.28;49.63;;;;;;;;;;5055071;28;20425;-77
2022/03/26 00:30:43;;;;;;;93.20;50.70;;;;;;;;;;5055329;28;20041;-78
2022/03/26 00:33:09;;;;;;;88.75;48.90;;;;;;;;;;5056578;28;20442;-77
2022/03/26 00:35:35;;;;;;;97.03;49.60;;;;;;;;;;5056084;28;20123;-78
2022/03/26 00:38:01;;;;;;;103.03;51.55;;;;;;;;;;5055449;28;20048;-77
2022/03/26 00:40:28;;;;;;;103.65;51.53;;;;;;;;;;5055842;28;20045;-78
2022/03/26 00:42:53;;;;;;;101.85;51.58;;;;;;;;;;5055056;28;20049;-78
2022/03/26 00:45:19;;;;;;;103.20;52.30;;;;;;;;;;5055859;28;20041;-79
2022/03/26 00:47:45;;;;;;;101.90;52.13;;;;;;;;;;5056827;28;20167;-78
2022/03/26 00:50:11;;;;;;;91.88;49.63;;;;;;;;;;5056262;28;20037;-78
2022/03/26 00:52:38;;;;;;;99.03;52.20;;;;;;;;;;5056636;28;20032;-77
2022/03/26 00:55:04;;;;;;;94.32;48.63;;;;;;;;;;5060594;28;20053;-78
2022/03/26 00:57:30;;;;;;;100.50;50.42;;;;;;;;;;5058923;28;20041;-77
2022/03/26 00:59:58;;;;;;;96.38;49.28;;;;;;;;;;5057047;28;20037;-78
2022/03/26 01:02:24;;;;;;;98.05;49.72;;;;;;;;;;5054581;28;20479;-77
2022/03/26 01:04:50;;;;;;;101.18;48.45;;;;;;;;;;5054734;28;20133;-77
2022/03/26 01:07:16;;;;;;;100.95;49.80;;;;;;;;;;5054240;28;20048;-77
2022/03/26 01:09:42;;;;;;;94.75;49.97;;;;;;;;;;5054429;28;20052;-77
2022/03/26 01:12:09;;;;;;;92.80;47.47;;;;;;;;;;5054419;28;20052;-78
2022/03/26 01:14:35;;;;;;;97.70;49.00;;;;;;;;;;5054234;28;20048;-77
2022/03/26 01:17:01;;;;;;;102.18;50.47;;;;;;;;;;5054401;28;20049;-77
2022/03/26 01:19:27;;;;;;;95.15;50.47;;;;;;;;;;5054174;28;20499;-77
2022/03/26 01:21:54;;;;;;;90.80;48.08;;;;;;;;;;5055112;28;20122;-77
2022/03/26 01:24:20;;;;;;;92.22;48.47;;;;;;;;;;5054060;28;20375;-78
2022/03/26 01:26:45;;;;;;;104.57;51.00;;;;;;;;;;5054716;28;20425;-78
2022/03/26 01:29:12;;;;;;;91.35;49.00;;;;;;;;;;5055406;28;20057;-76
2022/03/26 01:31:38;;;;;;;100.25;49.20;;;;;;;;;;5058516;28;20116;-78
2022/03/26 01:34:04;;;;;;;100.45;51.60;;;;;;;;;;5058307;28;20080;-78
2022/03/26 01:36:30;;;;;;;106.10;50.80;;;;;;;;;;5058780;28;20483;-76
2022/03/26 01:38:56;;;;;;;100.35;50.45;;;;;;;;;;5057995;28;20372;-77
2022/03/26 01:41:22;;;;;;;94.03;48.53;;;;;;;;;;5057497;28;20067;-77
2022/03/26 01:43:48;;;;;;;95.22;47.75;;;;;;;;;;5057337;28;20056;-77
2022/03/26 01:46:14;;;;;;;94.85;48.00;;;;;;;;;;5057542;28;20044;-78
2022/03/26 01:48:40;;;;;;;93.82;50.83;;;;;;;;;;5059111;28;20037;-78
2022/03/26 01:51:16;;;;;;;93.93;49.17;;;;;;;;;;5057892;28;20045;-77
2022/03/26 01:53:43;;;;;;;102.82;49.95;;;;;;;;;;5059025;28;20454;-77
2022/03/26 01:56:09;;;;;;;91.68;49.25;;;;;;;;;;5057488;28;20336;-77
2022/03/26 01:58:35;;;;;;;97.82;48.30;;;;;;;;;;5057564;28;20072;-78
2022/03/26 02:01:01;;;;;;;96.55;48.88;;;;;;;;;;5057994;28;20040;-78
2022/03/26 02:03:27;;;;;;;98.15;49.63;;;;;;;;;;5057618;28;20045;-77
2022/03/26 02:05:54;;;;;;;104.47;50.72;;;;;;;;;;5057110;28;20425;-78
2022/03/26 02:08:20;;;;;;;96.78;50.28;;;;;;;;;;5058548;28;20041;-78
2022/03/26 02:10:46;;;;;;;98.00;50.10;;;;;;;;;;5057903;28;20045;-77
2022/03/26 02:13:12;;;;;;;101.90;53.38;;;;;;;;;;5059256;28;20437;-78
2022/03/26 02:15:40;;;;;;;100.35;50.50;;;;;;;;;;5064094;28;20040;-77
2022/03/26 02:18:06;;;;;;;95.50;50.00;;;;;;;;;;5076062;28;20064;-77
2022/03/26 02:20:32;;;;;;;93.10;48.72;;;;;;;;;;5072037;28;20092;-78
2022/03/26 02:22:58;;;;;;;102.20;50.97;;;;;;;;;;5075827;28;20067;-76
2022/03/26 02:25:25;;;;;;;101.55;50.92;;;;;;;;;;5075534;28;20072;-76
2022/03/26 02:27:50;;;;;;;97.97;49.85;;;;;;;;;;5074875;28;20372;-77
2022/03/26 02:30:16;;;;;;;104.13;50.83;;;;;;;;;;5068621;28;20131;-79
2022/03/26 02:32:42;;;;;;;108.78;51.65;;;;;;;;;;5057980;28;20040;-77
2022/03/26 02:35:09;;;;;;;105.65;53.75;;;;;;;;;;5056687;28;20040;-77
2022/03/26 02:37:35;;;;;;;105.03;52.40;;;;;;;;;;5057109;28;20037;-79
2022/03/26 02:40:02;;;;;;;109.68;51.97;;;;;;;;;;5055970;28;20040;-77
2022/03/26 02:42:28;;;;;;;97.45;51.20;;;;;;;;;;5056718;28;20051;-77
2022/03/26 02:44:54;;;;;;;104.97;53.17;;;;;;;;;;5056760;28;20045;-77
2022/03/26 02:47:20;;;;;;;102.97;52.58;;;;;;;;;;5057348;28;20120;-77
2022/03/26 02:49:46;;;;;;;96.25;51.28;;;;;;;;;;5057267;28;20086;-78
2022/03/26 02:52:12;;;;;;;105.05;55.13;;;;;;;;;;5057369;28;20039;-76
2022/03/26 02:54:38;;;;;;;114.82;55.50;;;;;;;;;;5057443;28;20032;-77
2022/03/26 02:57:05;;;;;;;114.47;56.33;;;;;;;;;;5056901;28;20433;-78
2022/03/26 02:59:31;;;;;;;109.30;53.47;;;;;;;;;;5057534;28;20041;-78
2022/03/26 03:01:57;;;;;;;107.43;54.47;;;;;;;;;;5058126;28;20120;-77
2022/03/26 03:04:23;;;;;;;108.35;53.10;;;;;;;;;;5058051;28;20071;-77
2022/03/26 03:06:49;;;;;;;104.25;51.95;;;;;;;;;;5059883;28;20124;-77
2022/03/26 03:09:15;;;;;;;107.28;53.47;;;;;;;;;;5059969;28;20112;-77
2022/03/26 03:11:41;;;;;;;112.97;55.45;;;;;;;;;;5056985;28;20079;-76
2022/03/26 03:14:07;;;;;;;111.35;54.40;;;;;;;;;;5057233;28;20095;-77
2022/03/26 03:16:33;;;;;;;110.43;56.05;;;;;;;;;;5055874;28;20029;-77
2022/03/26 03:18:59;;;;;;;106.93;54.17;;;;;;;;;;5056466;28;20047;-77
2022/03/26 03:21:25;;;;;;;103.47;53.25;;;;;;;;;;5055471;28;20044;-77
2022/03/26 03:23:51;;;;;;;102.18;52.17;;;;;;;;;;5057159;28;20059;-76
2022/03/26 03:26:17;;;;;;;109.07;53.00;;;;;;;;;;5055747;28;20448;-76
2022/03/26 03:28:43;;;;;;;105.18;53.40;;;;;;;;;;5055720;28;20110;-77
2022/03/26 03:31:10;;;;;;;107.72;53.45;;;;;;;;;;5056373;28;20484;-77
2022/03/26 03:33:36;;;;;;;112.43;54.53;;;;;;;;;;5055789;28;20037;-78
2022/03/26 03:36:02;;;;;;;108.65;54.42;;;;;;;;;;5055782;28;20126;-78
2022/03/26 03:38:28;;;;;;;107.18;53.05;;;;;;;;;;5055681;28;20041;-78
2022/03/26 03:40:55;;;;;;;108.72;55.45;;;;;;;;;;5055406;28;20048;-76
2022/03/26 03:43:21;;;;;;;117.13;53.60;;;;;;;;;;5055443;28;20033;-75
2022/03/26 03:45:47;;;;;;;109.47;55.17;;;;;;;;;;5055365;28;20049;-77
2022/03/26 03:48:13;;;;;;;113.70;53.58;;;;;;;;;;5055379;28;20045;-77
2022/03/26 03:50:39;;;;;;;107.07;55.45;;;;;;;;;;5055515;28;20060;-77
2022/03/26 03:53:05;;;;;;;109.57;54.38;;;;;;;;;;5055097;28;20372;-77
2022/03/26 03:55:31;;;;;;;114.72;53.83;;;;;;;;;;5054651;28;20051;-77
2022/03/26 03:57:57;;;;;;;107.50;54.33;;;;;;;;;;5055833;28;20088;-77
2022/03/26 04:00:23;;;;;;;110.95;55.28;;;;;;;;;;5054864;28;20040;-77
2022/03/26 04:02:49;;;;;;;110.88;55.17;;;;;;;;;;5055345;28;20079;-78
2022/03/26 04:05:15;;;;;;;112.70;56.40;;;;;;;;;;5056448;28;20039;-76
2022/03/26 04:07:41;;;;;;;107.22;55.05;;;;;;;;;;5054496;28;20069;-77
2022/03/26 04:10:08;;;;;;;117.35;55.83;;;;;;;;;;5054891;28;20131;-78
2022/03/26 04:12:38;;;;;;;114.78;56.70;;;;;;;;;;5054895;28;20049;-77
2022/03/26 04:15:04;;;;;;;110.93;54.45;;;;;;;;;;5054933;28;20444;-77
2022/03/26 04:17:30;;;;;;;114.97;55.30;;;;;;;;;;5054913;28;20490;-78
2022/03/26 04:19:56;;;;;;;123.22;56.28;;;;;;;;;;5058594;28;20095;-76
2022/03/26 04:22:22;;;;;;;111.35;54.20;;;;;;;;;;5060484;28;20033;-77
2022/03/26 04:24:48;;;;;;;116.07;53.92;;;;;;;;;;5059811;28;20056;-77
2022/03/26 04:27:14;;;;;;;106.45;53.28;;;;;;;;;;5060354;28;20037;-78
2022/03/26 04:29:40;;;;;;;118.20;54.30;;;;;;;;;;5055017;28;20055;-77
2022/03/26 04:32:06;;;;;;;113.15;52.17;;;;;;;;;;5054978;28;20043;-78
2022/03/26 04:34:33;;;;;;;109.07;52.97;;;;;;;;;;5054437;28;20047;-77
2022/03/26 04:36:58;;;;;;;112.00;54.42;;;;;;;;;;5054652;28;20037;-78
2022/03/26 04:39:24;;;;;;;111.80;54.55;;;;;;;;;;5054910;28;20037;-77
2022/03/26 04:41:50;;;;;;;108.05;53.33;;;;;;;;;;5056673;28;20064;-77
2022/03/26 04:44:16;;;;;;;110.70;53.92;;;;;;;;;;5056777;28;20204;-77
2022/03/26 04:46:42;;;;;;;118.68;54.00;;;;;;;;;;5060793;28;20045;-77
2022/03/26 04:49:08;;;;;;;112.75;54.97;;;;;;;;;;5056516;28;20102;-78
2022/03/26 04:51:34;;;;;;;123.57;54.60;;;;;;;;;;5055808;28;20044;-77
2022/03/26 04:54:00;;;;;;;113.18;54.85;;;;;;;;;;5057544;28;20045;-77
2022/03/26 04:56:26;;;;;;;116.13;54.55;;;;;;;;;;5055879;28;20095;-76
2022/03/26 04:58:55;;;;;;;108.95;54.30;;;;;;;;;;5054362;28;20075;-77
2022/03/26 05:01:22;;;;;;;110.50;53.55;;;;;;;;;;5054260;28;20065;-76
2022/03/26 05:03:48;;;;;;;108.07;52.92;;;;;;;;;;5055407;28;20406;-77
2022/03/26 05:06:14;;;;;;;108.45;53.30;;;;;;;;;;5058711;28;20432;-76
2022/03/26 05:08:40;;;;;;;112.30;55.15;;;;;;;;;;5058297;28;20037;-77
2022/03/26 05:11:06;;;;;;;116.40;55.33;;;;;;;;;;5058124;28;20040;-77
2022/03/26 05:13:32;;;;;;;113.10;55.83;;;;;;;;;;5062777;28;20052;-76
2022/03/26 05:15:58;;;;;;;111.88;54.85;;;;;;;;;;5065246;28;20049;-76
2022/03/26 05:18:24;;;;;;;118.75;54.78;;;;;;;;;;5059828;28;20346;-76
2022/03/26 05:20:50;;;;;;;113.20;53.30;;;;;;;;;;5069942;28;20037;-76
2022/03/26 05:23:17;;;;;;;107.25;52.28;;;;;;;;;;5077849;28;20056;-75
2022/03/26 05:25:43;;;;;;;109.55;54.40;;;;;;;;;;5079397;28;20194;-76
2022/03/26 05:28:09;;;;;;;112.43;54.42;;;;;;;;;;5073915;28;20463;-77
2022/03/26 05:30:35;;;;;;;114.43;52.88;;;;;;;;;;5074594;28;20048;-76
2022/03/26 05:33:01;;;;;;;116.85;54.78;;;;;;;;;;5073075;28;20044;-76
2022/03/26 05:35:27;;;;;;;117.93;56.47;;;;;;;;;;5069064;28;20117;-77
2022/03/26 05:37:53;;;;;;;111.80;52.90;;;;;;;;;;5058413;28;20052;-77
2022/03/26 05:40:20;;;;;;;109.85;51.42;;;;;;;;;;5057744;28;20037;-76
2022/03/26 05:42:46;;;;;;;115.80;52.92;;;;;;;;;;5058249;28;20122;-78
2022/03/26 05:45:12;;;;;;;106.82;51.97;;;;;;;;;;5057882;28;20041;-77
2022/03/26 05:47:38;;;;;;;108.80;50.47;;;;;;;;;;5058728;28;20055;-78
2022/03/26 05:50:04;;;;;;;102.35;52.45;;;;;;;;;;5058689;28;20091;-78
2022/03/26 05:52:30;;;;;;;103.45;51.47;;;;;;;;;;5059380;28;20051;-77
2022/03/26 05:54:56;;;;;;;103.95;50.53;;;;;;;;;;5058989;28;20032;-78
2022/03/26 05:57:22;;;;;;;108.03;52.53;;;;;;;;;;5058456;28;20120;-77
2022/03/26 05:59:48;;;;;;;106.13;51.10;;;;;;;;;;5061286;28;20513;-77
2022/03/26 06:02:15;;;;;;;107.03;50.95;;;;;;;;;;5057292;28;20037;-78
2022/03/26 06:04:44;;;;;;;106.85;51.15;;;;;;;;;;5056931;28;20441;-78
2022/03/26 06:07:10;;;;;;;106.97;51.72;;;;;;;;;;5057583;28;20077;-78
2022/03/26 06:09:37;;;;;;;111.93;54.10;;;;;;;;;;5057362;28;20051;-77
2022/03/26 06:12:03;;;;;;;103.70;51.75;;;;;;;;;;5057594;28;20037;-77
2022/03/26 06:14:29;;;;;;;107.65;52.45;;;;;;;;;;5056033;28;20045;-77
2022/03/26 06:16:55;;;;;;;104.90;50.45;;;;;;;;;;5056534;28;20061;-77
2022/03/26 06:19:21;;;;;;;108.03;51.50;;;;;;;;;;5056609;28;20107;-76
2022/03/26 06:21:50;;;;;;;105.95;52.47;;;;;;;;;;5056986;28;20041;-78
2022/03/26 06:24:16;;;;;;;109.05;51.92;;;;;;;;;;5056064;28;20119;-76
2022/03/26 06:26:44;;;;;;;102.75;51.53;;;;;;;;;;5056435;28;20041;-76
2022/03/26 06:29:10;;;;;;;108.07;51.92;;;;;;;;;;5055865;28;20084;-76
2022/03/26 06:31:36;;;;;;;103.55;51.50;;;;;;;;;;5055798;28;20084;-76
2022/03/26 06:34:02;;;;;;;101.40;50.95;;;;;;;;;;5056238;28;20079;-76
2022/03/26 06:36:28;;;;;;;106.05;51.38;;;;;;;;;;5056276;28;20041;-76
2022/03/26 06:38:54;;;;;;;112.95;52.42;;;;;;;;;;5055986;28;20029;-75
2022/03/26 06:41:20;;;;;;;107.05;51.45;;;;;;;;;;5055861;28;20040;-75
2022/03/26 06:43:46;;;;;;;101.80;52.33;;;;;;;;;;5055974;28;20041;-75
2022/03/26 06:46:12;;;;;;;99.28;51.00;;;;;;;;;;5056303;28;20037;-76
2022/03/26 06:48:38;;;;;;;107.68;51.03;;;;;;;;;;5056020;28;20048;-75
2022/03/26 06:51:04;;;;;;;100.55;50.17;;;;;;;;;;5055816;28;20360;-77
2022/03/26 06:53:30;;;;;;;104.38;50.25;;;;;;;;;;5056485;28;20103;-77
2022/03/26 06:55:57;;;;;;;96.07;47.75;;;;;;;;;;5056735;28;20036;-77
2022/03/26 06:58:24;;;;;;;101.60;51.08;;;;;;;;;;5056928;28;20451;-77
2022/03/26 07:00:50;;;;;;;93.47;48.72;;;;;;;;;;5071985;28;20043;-80
2022/03/26 07:03:16;;;;;;;103.80;52.70;;;;;;;;;;5069791;28;20476;-80
2022/03/26 07:05:42;;;;;;;108.00;52.22;;;;;;;;;;5072178;28;20045;-80
2022/03/26 07:08:09;;;;;;;104.15;50.88;;;;;;;;;;5068711;28;20041;-79
2022/03/26 07:10:35;;;;;;;102.93;51.88;;;;;;;;;;5060559;28;20060;-80
2022/03/26 07:13:01;;;;;;;100.57;49.95;;;;;;;;;;5061194;28;20037;-82
2022/03/26 07:15:30;;;;;;;100.28;50.15;;;;;;;;;;5060774;28;20045;-78
2022/03/26 07:17:59;;;;;;;100.82;50.92;;;;;;;;;;5059864;28;20041;-79
2022/03/26 07:20:26;;;;;;;101.55;51.38;;;;;;;;;;5057249;28;20067;-78
2022/03/26 07:22:52;;;;;;;92.25;47.42;;;;;;;;;;5058596;28;20104;-78
2022/03/26 07:25:18;;;;;;;91.50;47.53;;;;;;;;;;5058307;28;20138;-78
2022/03/26 07:27:44;;;;;;;92.50;47.38;;;;;;;;;;5058124;28;20045;-79
2022/03/26 07:30:11;;;;;;;90.75;48.17;;;;;;;;;;5058878;28;20057;-80
2022/03/26 07:32:37;;;;;;;93.60;46.60;;;;;;;;;;5058665;28;20048;-80
2022/03/26 07:35:03;;;;;;;90.38;46.00;;;;;;;;;;5058113;28;20078;-80
2022/03/26 07:37:29;;;;;;;87.03;46.45;;;;;;;;;;5058965;28;20037;-81
2022/03/26 07:39:55;;;;;;;91.55;45.90;;;;;;;;;;5059565;28;20139;-80
2022/03/26 07:42:21;;;;;;;97.68;48.95;;;;;;;;;;5059569;28;20151;-80
2022/03/26 07:44:47;;;;;;;92.60;47.47;;;;;;;;;;5068565;28;20048;-80
2022/03/26 07:47:13;;;;;;;92.05;47.00;;;;;;;;;;5061204;28;20064;-80
2022/03/26 07:49:39;;;;;;;92.50;46.70;;;;;;;;;;5059479;28;20041;-80
2022/03/26 07:52:05;;;;;;;88.57;46.65;;;;;;;;;;5057771;28;20364;-80
2022/03/26 07:54:32;;;;;;;88.60;46.33;;;;;;;;;;5058563;28;20071;-79
2022/03/26 07:56:58;;;;;;;89.80;45.75;;;;;;;;;;5058830;28;20033;-80
2022/03/26 07:59:24;;;;;;;91.82;47.40;;;;;;;;;;5060638;28;20072;-79
2022/03/26 08:01:50;;;;;;;85.10;47.40;;;;;;;;;;5059305;28;20044;-79
2022/03/26 08:04:15;;;;;;;85.65;46.42;;;;;;;;;;5059893;28;20037;-79
2022/03/26 08:06:41;;;;;;;91.45;47.40;;;;;;;;;;5066601;28;20044;-79
2022/03/26 08:09:07;;;;;;;94.88;48.67;;;;;;;;;;5059811;28;20468;-79
2022/03/26 08:11:34;;;;;;;86.78;46.40;;;;;;;;;;5059743;28;20041;-79
2022/03/26 08:14:00;;;;;;;91.07;46.75;;;;;;;;;;5076564;28;20051;-76
2022/03/26 08:16:26;;;;;;;92.68;46.33;;;;;;;;;;5078459;28;20037;-78
2022/03/26 08:18:52;;;;;;;89.88;46.10;;;;;;;;;;5076025;28;20037;-78
2022/03/26 08:21:18;;;;;;;86.00;47.13;;;;;;;;;;5065750;28;20067;-79
2022/03/26 08:23:44;;;;;;;82.28;45.88;;;;;;;;;;5059837;28;20037;-78
2022/03/26 08:26:23;;;;;;;86.75;47.22;;;;;;;;;;5056002;28;20037;-78
2022/03/26 08:28:52;;;;;;;85.13;45.88;;;;;;;;;;5057184;28;20132;-79
2022/03/26 08:31:18;;;;;;;79.70;45.05;;;;;;;;;;5061561;28;20040;-78
2022/03/26 08:33:45;;;;;;;84.13;44.97;;;;;;;;;;5056629;28;20436;-78
2022/03/26 08:36:11;;;;;;;79.43;44.10;;;;;;;;;;5056994;28;20036;-79
2022/03/26 08:38:37;;;;;;;81.85;43.35;;;;;;;;;;5056707;28;20048;-78
2022/03/26 08:41:04;;;;;;;81.70;42.75;;;;;;;;;;5056853;28;20032;-78
2022/03/26 08:43:30;;;;;;;77.80;41.70;;;;;;;;;;5056373;28;20029;-78
2022/03/26 08:45:56;;;;;;;84.13;39.97;;;;;;;;;;5056361;28;20471;-80
2022/03/26 08:48:22;;;;;;;74.10;40.83;;;;;;;;;;5056486;28;20040;-79
2022/03/26 08:50:48;;;;;;;76.10;39.83;;;;;;;;;;5056395;28;20062;-78
2022/03/26 08:53:14;;;;;;;80.88;41.35;;;;;;;;;;5056049;28;20044;-77
2022/03/26 08:55:40;;;;;;;72.78;40.00;;;;;;;;;;5057745;28;20321;-77
2022/03/26 08:58:07;;;;;;;78.82;40.03;;;;;;;;;;5065687;28;20399;-77
2022/03/26 09:00:34;;;;;;;76.03;38.83;;;;;;;;;;5064945;28;20063;-77
2022/03/26 09:03:00;;;;;;;72.15;37.85;;;;;;;;;;5065828;28;20048;-79
2022/03/26 09:05:26;;;;;;;73.78;39.53;;;;;;;;;;5060922;28;20040;-80
2022/03/26 09:07:52;;;;;;;71.55;37.08;;;;;;;;;;5057462;28;20059;-80
2022/03/26 09:10:18;;;;;;;72.30;36.58;;;;;;;;;;5058176;28;20045;-81
2022/03/26 09:12:44;;;;;;;74.80;38.50;;;;;;;;;;5060740;28;20082;-79
2022/03/26 09:15:10;;;;;;;69.60;39.38;;;;;;;;;;5060308;28;20049;-80
2022/03/26 09:17:37;;;;;;;67.90;38.22;;;;;;;;;;5057504;28;20055;-80
2022/03/26 09:20:04;;;;;;;67.13;37.60;;;;;;;;;;5056919;28;20102;-81
2022/03/26 09:22:30;;;;;;;67.38;36.90;;;;;;;;;;5058964;28;20048;-81
2022/03/26 09:24:56;;;;;;;74.47;37.95;;;;;;;;;;5065128;28;20045;-81
2022/03/26 09:27:22;;;;;;;74.60;39.03;;;;;;;;;;5065734;28;20356;-81
2022/03/26 09:29:50;;;;;;;73.57;39.53;;;;;;;;;;5063978;28;20365;-79
2022/03/26 09:32:16;;;;;;;72.40;38.60;;;;;;;;;;5057457;28;20076;-79
2022/03/26 09:34:42;;;;;;;75.05;38.42;;;;;;;;;;5058496;28;20060;-81
2022/03/26 09:37:08;;;;;;;69.90;37.53;;;;;;;;;;5057285;28;20115;-81
2022/03/26 09:39:34;;;;;;;76.38;38.70;;;;;;;;;;5056868;28;20037;-81
2022/03/26 09:42:00;;;;;;;71.68;36.80;;;;;;;;;;5057252;28;20102;-81
2022/03/26 09:44:26;;;;;;;66.90;36.75;;;;;;;;;;5056614;28;20376;-80
2022/03/26 09:46:52;;;;;;;69.90;37.95;;;;;;;;;;5057109;28;20124;-81
2022/03/26 09:49:18;;;;;;;69.10;37.85;;;;;;;;;;5058103;28;20062;-80
2022/03/26 09:51:44;;;;;;;70.13;37.67;;;;;;;;;;5060944;28;20037;-81
2022/03/26 09:54:12;;;;;;;62.58;35.58;;;;;;;;;;5059973;28;20037;-80
2022/03/26 09:56:39;;;;;;;62.60;35.72;;;;;;;;;;5060516;28;20097;-79
2022/03/26 09:59:05;;;;;;;66.80;36.95;;;;;;;;;;5060760;28;20116;-81
2022/03/26 10:01:31;;;;;;;62.90;34.67;;;;;;;;;;5060006;28;20044;-80
2022/03/26 10:04:16;;;;;;;63.75;35.15;;;;;;;;;;5059613;28;20459;-80
2022/03/26 10:06:48;;;;;;;66.65;35.30;;;;;;;;;;5059543;28;20120;-80
2022/03/26 10:09:27;;;;;;;65.18;34.75;;;;;;;;;;5059666;28;20041;-80
2022/03/26 10:12:04;;;;;;;58.90;34.35;;;;;;;;;;5059618;28;20114;-80
2022/03/26 10:14:37;;;;;;;56.47;32.00;;;;;;;;;;5060067;28;20037;-80
2022/03/26 10:17:13;;;;;;;56.63;29.88;;;;;;;;;;5060067;28;20047;-80
2022/03/26 10:19:43;;;;;;;45.95;26.27;;;;;;;;;;5060217;28;20515;-80
2022/03/26 10:22:23;;;;;;;49.72;28.48;;;;;;;;;;5059354;28;20075;-80
2022/03/26 10:24:49;;;;;;;49.83;27.33;;;;;;;;;;5060145;28;20049;-80
2022/03/26 10:27:15;;;;;;;47.95;26.08;;;;;;;;;;5059956;28;20064;-80
2022/03/26 10:29:59;;;;;;;41.35;22.92;;;;;;;;;;5060242;28;20053;-80
2022/03/26 10:32:41;;;;;;;49.15;25.30;;;;;;;;;;5060335;28;20033;-81
2022/03/26 10:35:17;;;;;;;43.75;24.35;;;;;;;;;;5061118;28;20045;-80
2022/03/26 10:37:47;;;;;;;38.42;22.15;;;;;;;;;;5061842;28;20458;-81
2022/03/26 10:40:20;;;;;;;36.78;20.33;;;;;;;;;;5060539;28;20041;-82
2022/03/26 10:42:51;;;;;;;42.42;23.15;;;;;;;;;;5061929;28;20520;-81
2022/03/26 10:45:17;;;;;;;41.30;21.10;;;;;;;;;;5063450;28;20468;-80
2022/03/26 10:47:43;;;;;;;34.28;20.70;;;;;;;;;;5067178;28;20041;-81
2022/03/26 10:50:10;;;;;;;30.83;18.70;;;;;;;;;;5068288;28;20044;-80
2022/03/26 10:52:36;;;;;;;32.72;17.70;;;;;;;;;;5052924;28;20042;-80
2022/03/26 10:55:02;;;;;;;36.47;20.25;;;;;;;;;;5020098;28;20037;-80
2022/03/26 10:57:28;;;;;;;26.42;14.90;;;;;;;;;;5042372;28;20045;-80
2022/03/26 10:59:54;;;;;;;28.50;16.67;;;;;;;;;;5030564;28;20043;-79
2022/03/26 11:02:20;;;;;;;32.47;16.98;;;;;;;;;;5029844;28;20098;-80
2022/03/26 11:04:46;;;;;;;32.25;16.88;;;;;;;;;;5032339;28;20042;-81
2022/03/26 11:07:12;;;;;;;23.15;14.50;;;;;;;;;;5015727;28;20097;-80
2022/03/26 11:09:38;;;;;;;25.35;12.65;;;;;;;;;;5014189;28;20045;-81
2022/03/26 11:12:04;;;;;;;21.15;12.25;;;;;;;;;;5029240;28;20128;-80
2022/03/26 11:14:33;;;;;;;24.90;14.15;;;;;;;;;;5030676;28;20038;-81
2022/03/26 11:17:26;;;;;;;22.90;12.95;;;;;;;;;;5007816;28;20065;-81
2022/03/26 11:20:21;;;;;;;22.92;12.65;;;;;;;;;;5021536;28;20037;-81
2022/03/26 11:22:50;;;;;;;24.63;11.93;;;;;;;;;;5023159;28;20200;-81
2022/03/26 11:25:49;;;;;;;18.10;11.45;;;;;;;;;;5047499;28;20085;-82
2022/03/26 11:28:19;;;;;;;20.88;11.57;;;;;;;;;;5015492;28;20046;-82
2022/03/26 11:30:48;;;;;;;18.10;9.15;;;;;;;;;;5010193;28;20172;-84
2022/03/26 11:33:17;;;;;;;24.98;10.60;;;;;;;;;;5005872;28;20046;-82
2022/03/26 11:36:10;;;;;;;25.25;11.77;;;;;;;;;;5007217;28;20455;-81
2022/03/26 11:38:36;;;;;;;21.73;12.43;;;;;;;;;;5018101;28;20500;-82
2022/03/26 11:41:03;;;;;;;18.95;11.02;;;;;;;;;;5019892;28;20040;-80
2022/03/26 11:43:44;;;;;;;18.10;10.45;;;;;;;;;;5003139;28;20034;-81
2022/03/26 11:51:40;;;;;;;12.75;6.13;;;;;;;;;;5019310;28;20042;-81
2022/03/26 11:54:14;;;;;;;16.85;9.93;;;;;;;;;;5002727;28;20069;-80
2022/03/26 11:56:40;;;;;;;;;;;;;;;;;;5020966;28;20358;-82
2022/03/26 11:59:20;;;;;;;15.40;9.35;;;;;;;;;;5019956;28;19988;-81
2022/03/26 12:01:46;;;;;;;15.07;9.27;;;;;;;;;;5020286;28;20066;-81
2022/03/26 12:04:18;;;;;;;11.40;6.57;;;;;;;;;;5020031;28;20053;-81
2022/03/26 12:06:46;;;;;;;15.85;8.60;;;;;;;;;;5019506;28;20068;-81
2022/03/26 12:09:14;;;;;;;13.13;7.03;;;;;;;;;;5018478;28;20105;-81
2022/03/26 12:12:00;;;;;;;12.98;6.38;;;;;;;;;;5002125;28;20049;-81
2022/03/26 12:14:26;;;;;;;15.35;8.35;;;;;;;;;;5018030;28;20370;-82
2022/03/26 12:16:53;;;;;;;18.83;10.35;;;;;;;;;;5019185;28;20052;-81
2022/03/26 12:19:38;;;;;;;21.63;10.68;;;;;;;;;;5001515;28;20045;-81
2022/03/26 12:22:20;;;;;;;17.30;10.60;;;;;;;;;;5034757;28;20034;-81
2022/03/26 12:24:46;;;;;;;18.75;9.73;;;;;;;;;;5002273;28;20038;-82
2022/03/26 12:27:13;;;;;;;16.77;9.23;;;;;;;;;;5003366;28;20041;-81
2022/03/26 12:29:39;;;;;;;22.73;10.30;;;;;;;;;;5018561;28;20460;-82
2022/03/26 12:32:06;;;;;;;18.77;11.02;;;;;;;;;;5018876;28;20068;-81
2022/03/26 12:34:32;;;;;;;17.70;11.65;;;;;;;;;;5020022;28;20144;-82
2022/03/26 12:37:01;;;;;;;20.15;12.32;;;;;;;;;;5020908;28;20026;-79
2022/03/26 12:39:27;;;;;;;18.90;12.07;;;;;;;;;;5010303;28;20041;-78
2022/03/26 12:41:54;;;;;;;22.00;12.63;;;;;;;;;;5021601;28;20097;-82
2022/03/26 12:44:22;;;;;;;21.17;11.88;;;;;;;;;;5003361;28;20038;-79
2022/03/26 12:46:49;;;;;;;21.05;11.73;;;;;;;;;;5004725;28;20072;-81
2022/03/26 12:49:18;;;;;;;21.33;12.48;;;;;;;;;;5022793;28;20034;-81
2022/03/26 12:51:44;;;;;;;19.48;12.13;;;;;;;;;;5022804;28;20033;-81
2022/03/26 12:54:10;;;;;;;21.13;12.90;;;;;;;;;;5040035;28;20469;-81
2022/03/26 12:56:36;;;;;;;22.17;11.85;;;;;;;;;;5006615;28;20038;-80
2022/03/26 12:59:02;;;;;;;18.30;10.57;;;;;;;;;;5037619;28;20085;-79
2022/03/26 13:01:29;;;;;;;21.35;12.25;;;;;;;;;;5003589;28;20457;-79
2022/03/26 13:03:55;;;;;;;19.88;11.90;;;;;;;;;;5002995;28;20042;-80
2022/03/26 13:06:21;;;;;;;19.90;11.82;;;;;;;;;;5019458;28;20046;-80
2022/03/26 13:08:59;;;;;;;19.42;11.98;;;;;;;;;;5002594;28;20370;-79
2022/03/26 13:11:26;;;;;;;21.63;12.38;;;;;;;;;;5018256;28;20072;-78
2022/03/26 13:13:53;;;;;;;21.67;12.05;;;;;;;;;;4998988;28;20052;-78
2022/03/26 13:16:21;;;;;;;17.00;10.15;;;;;;;;;;5015057;28;20041;-78
2022/03/26 13:18:47;;;;;;;21.75;11.38;;;;;;;;;;4998623;28;20124;-78
2022/03/26 13:21:13;;;;;;;18.15;11.40;;;;;;;;;;5030737;28;20347;-78
2022/03/26 13:23:41;;;;;;;14.82;9.65;;;;;;;;;;4998231;28;20045;-76
2022/03/26 13:26:07;;;;;;;21.27;12.43;;;;;;;;;;5000928;28;20037;-78
2022/03/26 13:28:36;;;;;;;18.55;11.07;;;;;;;;;;5017815;28;20052;-77
2022/03/26 13:31:38;;;;;;;17.75;10.90;;;;;;;;;;5018206;28;20046;-77
2022/03/26 13:34:10;;;;;;;21.67;12.25;;;;;;;;;;5016958;28;20045;-76
2022/03/26 13:36:36;;;;;;;24.07;12.97;;;;;;;;;;5001964;28;20042;-81
2022/03/26 13:39:13;;;;;;;19.55;12.20;;;;;;;;;;5005297;28;20468;-77
2022/03/26 13:41:39;;;;;;;19.73;11.88;;;;;;;;;;5007855;28;20048;-79
2022/03/26 13:44:06;;;;;;;20.42;11.98;;;;;;;;;;5024186;28;20061;-78
2022/03/26 13:46:32;;;;;;;21.42;12.32;;;;;;;;;;5006209;28;20041;-78
2022/03/26 13:48:58;;;;;;;19.38;11.80;;;;;;;;;;5004601;28;20527;-78
2022/03/26 13:51:28;;;;;;;18.50;11.50;;;;;;;;;;5003937;28;20177;-78
2022/03/26 13:53:54;;;;;;;17.48;11.23;;;;;;;;;;5002866;28;20038;-78
2022/03/26 13:56:24;;;;;;;18.10;11.38;;;;;;;;;;5018876;28;20072;-78
2022/03/26 13:58:51;;;;;;;17.60;10.32;;;;;;;;;;5018626;28;20056;-79
2022/03/26 14:01:18;;;;;;;20.75;12.00;;;;;;;;;;5002694;28;20113;-80
2022/03/26 14:03:44;;;;;;;19.90;12.48;;;;;;;;;;5003301;28;20104;-80
2022/03/26 14:06:10;;;;;;;23.90;13.30;;;;;;;;;;5020711;28;20037;-79
2022/03/26 14:08:36;;;;;;;20.88;13.85;;;;;;;;;;5019901;28;20076;-79
2022/03/26 14:11:02;;;;;;;21.52;13.70;;;;;;;;;;5021069;28;20041;-79
2022/03/26 14:13:28;;;;;;;29.17;13.80;;;;;;;;;;5022281;28;20124;-78
2022/03/26 14:15:54;;;;;;;21.73;13.55;;;;;;;;;;5036643;28;20029;-79
2022/03/26 14:18:21;;;;;;;22.60;13.80;;;;;;;;;;5020551;28;20033;-79
2022/03/26 14:20:47;;;;;;;24.65;15.30;;;;;;;;;;5019749;28;20038;-80